Airfield :
LOGIN :

Register | Disclaimer

   EN    FR    IT 

 










Legend :    VFR   Marginal VFR   IFR   Intensive IFR   Very Intensive IFR
Visi :
Ceiling :
>= 8 km
>= 3000ft
5 to 8 km
1000 to 3000 ft
1500m to 5 km
500 to 1000 ft
800 to 1500m
200 to 500 ft
< 800m
< 200 ft
Symbols :   Thunderstorms  Fog  Heavy snow  Heavy precipitations  Wind > 20 kt
SIGMETs :     Misc.  Thunderstorms  Icing  Turbulence  Mountain Waves  Volcanic Ashes






- Airport Elevation : 184 ft
- IATA code : BRU


EBBR - Bruxelles

CURRENT METAR :
  • 191220Z 36004KT 330V040 9999 -SHRA FEW025 SCT040 12/05 Q1020 TEMPO 4500 SHRA

EXPIRED METARs :
  • 191150Z VRB02KT 9999 FEW034 12/05 Q1020 TEMPO FM1200 4500 SHRA
  • 191120Z VRB03KT 9999 FEW034 12/04 Q1020 TEMPO FM1200 4500 SHRA
  • 191050Z 36004KT 330V070 9999 FEW030 12/03 Q1020 TEMPO FM1200 4500 SHRA
  • 191020Z 34003KT 280V080 9999 FEW026 12/04 Q1020 NOSIG
  • 190950Z 34005KT 290V030 9999 FEW024 11/05 Q1020 NOSIG

TAF TAF EBBR
Valid from the 19 at 12:00 until the 20 at 18:00 UTC


191110Z 1912/2018 30004KT 9999 SCT030
PROB30
TEMPO 1912/1918 4000 SHRA BKN014 SCT020CB
BECMG 1922/1924 2500 BR
PROB40
TEMPO 2001/2007 0400 FG BKN001
BECMG 2007/2009 6000 NSW



MET'MAP, your aeronautical weather chart ! - Copyright ORBIFLY December 2007 - Disclaimer

ORBIFLY MET'MAP TEAM :

Programming & Development : Alexandra Zaïnal
Concept & original design : Baudouin d'Aumeries
Assistance for programming : Marc-Olivier Méhu
Technical & hardware support : Manuel Goepfert

Contact : metmap@orbifly.com




SOURCES & CREDITS :

   NOAA